Time;durP1;ratioP1;P1;durP2;ratioP2;P2;SDS_P1;SDS_P2;PMS_P1;PMS_P2;Temp;Humidity;BMP_temperature;BMP_pressure;BME280_temperature;BME280_humidity;BME280_pressure;Samples;Min_cycle;Max_cycle;Signal;HPM_P1;HPM_P2
2023/12/13 00:01:54;;;;;;;0.10;0.10;;;;;;;;;;5009937;28;20667;-76
2023/12/13 00:04:20;;;;;;;0.10;0.10;;;;;;;;;;5009441;28;20520;-75
2023/12/13 00:06:47;;;;;;;0.10;0.10;;;;;;;;;;4993307;28;20879;-76
2023/12/13 00:09:13;;;;;;;0.10;0.10;;;;;;;;;;4996735;28;20579;-74
2023/12/13 00:11:39;;;;;;;0.10;0.10;;;;;;;;;;5005492;28;20054;-74
2023/12/13 00:14:07;;;;;;;0.10;0.10;;;;;;;;;;5008717;28;20256;-75
2023/12/13 00:16:35;;;;;;;0.10;0.10;;;;;;;;;;4996895;28;20116;-75
2023/12/13 00:19:02;;;;;;;0.10;0.10;;;;;;;;;;5006118;28;20125;-74
2023/12/13 00:21:28;;;;;;;1.20;0.57;;;;;;;;;;5007946;28;20058;-75
2023/12/13 00:23:56;;;;;;;0.10;0.10;;;;;;;;;;5001176;28;20060;-74
2023/12/13 00:26:23;;;;;;;1.10;1.00;;;;;;;;;;5002461;28;20077;-74
2023/12/13 00:28:50;;;;;;;0.10;0.10;;;;;;;;;;5002199;28;20173;-75
2023/12/13 00:31:16;;;;;;;0.10;0.10;;;;;;;;;;5008812;28;20105;-76
2023/12/13 00:33:43;;;;;;;0.10;0.10;;;;;;;;;;5005073;28;20057;-74
2023/12/13 00:36:09;;;;;;;0.10;0.10;;;;;;;;;;5008787;28;20156;-74
2023/12/13 00:38:36;;;;;;;0.10;0.10;;;;;;;;;;5009257;28;20051;-76
2023/12/13 00:41:02;;;;;;;0.10;0.10;;;;;;;;;;5003876;28;20054;-75
2023/12/13 00:43:28;;;;;;;0.10;0.10;;;;;;;;;;5001319;28;20082;-75
2023/12/13 00:45:55;;;;;;;0.10;0.10;;;;;;;;;;5006598;28;20058;-75
2023/12/13 00:48:21;;;;;;;0.52;0.52;;;;;;;;;;5008930;28;20054;-76
2023/12/13 00:50:48;;;;;;;0.10;0.10;;;;;;;;;;5009309;28;20062;-75
2023/12/13 00:53:14;;;;;;;0.10;0.10;;;;;;;;;;5008401;28;20110;-76
2023/12/13 00:55:41;;;;;;;0.15;0.15;;;;;;;;;;5004014;28;20058;-74
2023/12/13 00:58:08;;;;;;;0.10;0.10;;;;;;;;;;5009359;28;20105;-75
2023/12/13 01:00:34;;;;;;;0.10;0.10;;;;;;;;;;5006579;28;20523;-75
2023/12/13 01:03:00;;;;;;;0.10;0.10;;;;;;;;;;5008303;28;20050;-75
2023/12/13 01:05:27;;;;;;;0.10;0.10;;;;;;;;;;5003626;28;20133;-74
2023/12/13 01:07:53;;;;;;;0.10;0.10;;;;;;;;;;5009198;28;20054;-76
2023/12/13 01:10:20;;;;;;;0.40;0.40;;;;;;;;;;5008113;28;20531;-76
2023/12/13 01:12:46;;;;;;;0.10;0.10;;;;;;;;;;5008725;28;20054;-74
2023/12/13 01:15:13;;;;;;;0.10;0.10;;;;;;;;;;5005194;28;20599;-75
2023/12/13 01:17:39;;;;;;;0.10;0.10;;;;;;;;;;5006581;28;20517;-75
2023/12/13 01:20:14;;;;;;;0.10;0.10;;;;;;;;;;5004975;28;21037;-75
2023/12/13 01:22:41;;;;;;;0.10;0.10;;;;;;;;;;4991044;28;20128;-75
2023/12/13 01:25:08;;;;;;;0.10;0.10;;;;;;;;;;5005169;28;20050;-75
2023/12/13 01:27:35;;;;;;;0.10;0.10;;;;;;;;;;5008344;28;20058;-75
2023/12/13 01:30:03;;;;;;;0.70;0.63;;;;;;;;;;5007415;28;20058;-75
2023/12/13 01:32:29;;;;;;;0.20;0.20;;;;;;;;;;5007094;28;20053;-76
2023/12/13 01:34:56;;;;;;;0.10;0.10;;;;;;;;;;5006543;28;20066;-73
2023/12/13 01:37:22;;;;;;;0.10;0.10;;;;;;;;;;5007237;28;20046;-75
2023/12/13 01:39:49;;;;;;;0.10;0.10;;;;;;;;;;5006713;28;20519;-75
2023/12/13 01:42:15;;;;;;;0.10;0.10;;;;;;;;;;5007435;28;20061;-76
2023/12/13 01:44:41;;;;;;;0.10;0.10;;;;;;;;;;5008369;28;20523;-75
2023/12/13 01:47:09;;;;;;;0.10;0.10;;;;;;;;;;5008303;28;20054;-76
2023/12/13 01:49:35;;;;;;;0.20;0.20;;;;;;;;;;5007032;28;20058;-76
2023/12/13 01:52:01;;;;;;;0.22;0.22;;;;;;;;;;5004218;28;20051;-76
2023/12/13 01:54:28;;;;;;;0.47;0.47;;;;;;;;;;5007831;28;20058;-76
2023/12/13 01:56:54;;;;;;;0.10;0.10;;;;;;;;;;5008301;28;20113;-76
2023/12/13 01:59:22;;;;;;;0.10;0.10;;;;;;;;;;5002078;28;20061;-76
2023/12/13 02:01:48;;;;;;;0.10;0.10;;;;;;;;;;5007112;28;20113;-75
2023/12/13 02:04:16;;;;;;;0.10;0.10;;;;;;;;;;5006732;28;20057;-75
2023/12/13 02:06:43;;;;;;;0.10;0.10;;;;;;;;;;5008276;28;20425;-76
2023/12/13 02:09:09;;;;;;;0.10;0.10;;;;;;;;;;5007298;28;20061;-75
2023/12/13 02:11:36;;;;;;;0.45;0.45;;;;;;;;;;5004090;28;20057;-74
2023/12/13 02:14:02;;;;;;;0.10;0.10;;;;;;;;;;5006264;28;20065;-76
2023/12/13 02:16:29;;;;;;;0.10;0.10;;;;;;;;;;5007202;28;20062;-75
2023/12/13 02:18:55;;;;;;;0.10;0.10;;;;;;;;;;5005774;28;23129;-75
2023/12/13 02:21:24;;;;;;;0.10;0.10;;;;;;;;;;5003356;28;20085;-76
2023/12/13 02:23:53;;;;;;;0.10;0.10;;;;;;;;;;5004974;28;20536;-76
2023/12/13 02:26:20;;;;;;;0.10;0.10;;;;;;;;;;5002329;28;20062;-76
2023/12/13 02:28:46;;;;;;;0.10;0.10;;;;;;;;;;5004765;28;20393;-75
2023/12/13 02:31:14;;;;;;;0.10;0.10;;;;;;;;;;4993060;28;20154;-75
2023/12/13 02:33:41;;;;;;;0.10;0.10;;;;;;;;;;5005736;28;20065;-75
2023/12/13 02:36:09;;;;;;;0.10;0.10;;;;;;;;;;5008177;28;20065;-75
2023/12/13 02:38:35;;;;;;;0.10;0.10;;;;;;;;;;5005867;28;20049;-74
2023/12/13 02:41:02;;;;;;;0.10;0.10;;;;;;;;;;5005411;28;20484;-75
2023/12/13 02:43:30;;;;;;;0.10;0.10;;;;;;;;;;5005804;28;20178;-75
2023/12/13 02:45:56;;;;;;;0.10;0.10;;;;;;;;;;5005877;28;20058;-75
2023/12/13 02:48:23;;;;;;;0.10;0.10;;;;;;;;;;5006236;28;20509;-75
2023/12/13 02:50:52;;;;;;;0.10;0.10;;;;;;;;;;5003798;28;20050;-73
2023/12/13 02:53:19;;;;;;;0.10;0.10;;;;;;;;;;5004247;28;20054;-75
2023/12/13 02:55:46;;;;;;;0.10;0.10;;;;;;;;;;5003120;28;20058;-75
2023/12/13 02:58:12;;;;;;;0.10;0.10;;;;;;;;;;5004646;28;20054;-76
2023/12/13 03:00:39;;;;;;;0.10;0.10;;;;;;;;;;5007078;28;20132;-75
2023/12/13 03:03:05;;;;;;;0.10;0.10;;;;;;;;;;5004686;28;20061;-75
2023/12/13 03:05:32;;;;;;;0.45;0.45;;;;;;;;;;5006351;28;20141;-75
2023/12/13 03:07:58;;;;;;;0.10;0.10;;;;;;;;;;5006724;28;20132;-75
2023/12/13 03:10:25;;;;;;;0.10;0.10;;;;;;;;;;5006321;28;20082;-76
2023/12/13 03:12:52;;;;;;;0.10;0.10;;;;;;;;;;5005709;28;20134;-75
2023/12/13 03:15:18;;;;;;;0.10;0.10;;;;;;;;;;5004334;28;20141;-75
2023/12/13 03:17:44;;;;;;;0.10;0.10;;;;;;;;;;5003133;28;20543;-76
2023/12/13 03:20:11;;;;;;;0.10;0.10;;;;;;;;;;5006672;28;20058;-74
2023/12/13 03:22:38;;;;;;;0.10;0.10;;;;;;;;;;5007340;28;20050;-74
2023/12/13 03:25:05;;;;;;;0.10;0.10;;;;;;;;;;5003232;28;20050;-75
2023/12/13 03:27:31;;;;;;;0.10;0.10;;;;;;;;;;5007663;28;20058;-76
2023/12/13 03:29:58;;;;;;;0.10;0.10;;;;;;;;;;5006221;28;20169;-76
2023/12/13 03:32:24;;;;;;;0.10;0.10;;;;;;;;;;5006762;28;20059;-74
2023/12/13 03:34:50;;;;;;;0.10;0.10;;;;;;;;;;5004730;28;20060;-74
2023/12/13 03:37:17;;;;;;;0.10;0.10;;;;;;;;;;5006674;28;20062;-76
2023/12/13 03:39:43;;;;;;;0.10;0.10;;;;;;;;;;5005756;28;20054;-76
2023/12/13 03:42:10;;;;;;;0.10;0.10;;;;;;;;;;5006063;28;20074;-75
2023/12/13 03:44:37;;;;;;;0.10;0.10;;;;;;;;;;5005613;28;20050;-76
2023/12/13 03:47:03;;;;;;;0.10;0.10;;;;;;;;;;5048923;23;20918;-81
2023/12/13 03:49:30;;;;;;;0.10;0.10;;;;;;;;;;5004587;28;20045;-80
2023/12/13 03:51:56;;;;;;;0.10;0.10;;;;;;;;;;5018285;28;20051;-80
2023/12/13 03:54:23;;;;;;;0.10;0.10;;;;;;;;;;5010467;28;20105;-80
2023/12/13 03:56:49;;;;;;;0.10;0.10;;;;;;;;;;4998847;28;20027;-79
2023/12/13 03:59:15;;;;;;;0.10;0.10;;;;;;;;;;5012301;28;20110;-80
2023/12/13 04:01:42;;;;;;;0.10;0.10;;;;;;;;;;5016688;28;20059;-80
2023/12/13 04:04:09;;;;;;;0.10;0.10;;;;;;;;;;4999493;28;20065;-80
2023/12/13 04:06:35;;;;;;;1.98;0.73;;;;;;;;;;5016865;28;20137;-80
2023/12/13 04:09:02;;;;;;;0.10;0.10;;;;;;;;;;5000903;28;20094;-79
2023/12/13 04:11:29;;;;;;;0.10;0.10;;;;;;;;;;4994544;28;20058;-80
2023/12/13 04:13:55;;;;;;;0.10;0.10;;;;;;;;;;4999701;28;20054;-80
2023/12/13 04:16:22;;;;;;;0.10;0.10;;;;;;;;;;5018132;28;20097;-79
2023/12/13 04:18:48;;;;;;;0.10;0.10;;;;;;;;;;5015691;28;20923;-80
2023/12/13 04:21:15;;;;;;;0.10;0.10;;;;;;;;;;5007499;28;20118;-80
2023/12/13 04:23:41;;;;;;;0.10;0.10;;;;;;;;;;5027703;28;20110;-80
2023/12/13 04:26:08;;;;;;;0.10;0.10;;;;;;;;;;5023345;28;20965;-80
2023/12/13 04:28:35;;;;;;;0.10;0.10;;;;;;;;;;5018570;28;20086;-80
2023/12/13 04:31:01;;;;;;;0.10;0.10;;;;;;;;;;5021587;28;20867;-80
2023/12/13 04:33:28;;;;;;;0.55;0.55;;;;;;;;;;5002094;28;20093;-80
2023/12/13 04:35:57;;;;;;;0.10;0.10;;;;;;;;;;5006451;28;20088;-80
2023/12/13 04:38:26;;;;;;;0.10;0.10;;;;;;;;;;5020264;28;20069;-79
2023/12/13 04:40:52;;;;;;;0.10;0.10;;;;;;;;;;5021059;28;20074;-79
2023/12/13 04:43:19;;;;;;;0.13;0.13;;;;;;;;;;5017536;28;20074;-80
2023/12/13 04:45:46;;;;;;;0.43;0.25;;;;;;;;;;5006220;28;20058;-80
2023/12/13 04:48:12;;;;;;;0.10;0.10;;;;;;;;;;5006165;28;20054;-80
2023/12/13 04:50:39;;;;;;;0.10;0.10;;;;;;;;;;5002572;28;20101;-80
2023/12/13 04:53:05;;;;;;;0.10;0.10;;;;;;;;;;5029392;28;20050;-80
2023/12/13 04:55:32;;;;;;;0.10;0.10;;;;;;;;;;5018428;28;20042;-79
2023/12/13 04:57:58;;;;;;;0.08;0.08;;;;;;;;;;5018032;28;20055;-79
2023/12/13 05:00:25;;;;;;;0.10;0.10;;;;;;;;;;5019556;28;20050;-79
2023/12/13 05:02:51;;;;;;;0.10;0.10;;;;;;;;;;5020546;28;20086;-80
2023/12/13 05:05:18;;;;;;;0.20;0.20;;;;;;;;;;5003259;28;20058;-80
2023/12/13 05:07:44;;;;;;;0.10;0.10;;;;;;;;;;5029941;28;20516;-80
2023/12/13 05:10:11;;;;;;;0.10;0.10;;;;;;;;;;5021225;28;20052;-79
2023/12/13 05:12:37;;;;;;;0.10;0.10;;;;;;;;;;4996882;28;20046;-80
2023/12/13 05:15:04;;;;;;;0.10;0.10;;;;;;;;;;5005858;28;20980;-80
2023/12/13 05:17:30;;;;;;;0.30;0.30;;;;;;;;;;5020706;28;20070;-80
2023/12/13 05:19:58;;;;;;;0.10;0.10;;;;;;;;;;5022182;28;20054;-80
2023/12/13 05:22:25;;;;;;;0.10;0.10;;;;;;;;;;5015534;28;20054;-80
2023/12/13 05:24:51;;;;;;;0.50;0.50;;;;;;;;;;5003515;28;20153;-79
2023/12/13 05:27:18;;;;;;;0.10;0.10;;;;;;;;;;5018526;28;20493;-80
2023/12/13 05:29:44;;;;;;;0.10;0.10;;;;;;;;;;5017260;28;20050;-79
2023/12/13 05:32:11;;;;;;;0.10;0.10;;;;;;;;;;5017832;28;20142;-81
2023/12/13 05:34:37;;;;;;;0.10;0.10;;;;;;;;;;5019690;28;20054;-79
2023/12/13 05:37:05;;;;;;;0.10;0.10;;;;;;;;;;5004365;28;20146;-79
2023/12/13 05:39:32;;;;;;;0.15;0.15;;;;;;;;;;5002609;28;20105;-80
2023/12/13 05:41:59;;;;;;;0.10;0.10;;;;;;;;;;5017980;28;20082;-79
2023/12/13 05:44:25;;;;;;;0.10;0.10;;;;;;;;;;4997022;28;20054;-78
2023/12/13 05:46:52;;;;;;;0.10;0.10;;;;;;;;;;4993254;28;20104;-78
2023/12/13 05:49:18;;;;;;;0.10;0.10;;;;;;;;;;4994397;28;20054;-78
2023/12/13 05:51:45;;;;;;;0.20;0.20;;;;;;;;;;5010968;28;20065;-79
2023/12/13 05:54:11;;;;;;;0.10;0.10;;;;;;;;;;5009959;28;20058;-78
2023/12/13 05:56:38;;;;;;;0.10;0.10;;;;;;;;;;4993373;28;20092;-78
2023/12/13 05:59:05;;;;;;;0.10;0.10;;;;;;;;;;5010827;28;20058;-79
2023/12/13 06:01:31;;;;;;;0.10;0.10;;;;;;;;;;4987819;28;20592;-79
2023/12/13 06:03:58;;;;;;;0.10;0.10;;;;;;;;;;5017032;28;20550;-79
2023/12/13 06:06:24;;;;;;;0.10;0.10;;;;;;;;;;4987157;28;20138;-79
2023/12/13 06:08:51;;;;;;;0.10;0.10;;;;;;;;;;4995133;28;20058;-78
2023/12/13 06:11:18;;;;;;;0.10;0.10;;;;;;;;;;5014644;28;20058;-79
2023/12/13 06:13:45;;;;;;;0.10;0.10;;;;;;;;;;4990118;28;20062;-79
2023/12/13 06:16:13;;;;;;;0.10;0.10;;;;;;;;;;4994078;28;20049;-78
2023/12/13 06:18:39;;;;;;;0.10;0.10;;;;;;;;;;5012230;28;20062;-79
2023/12/13 06:21:07;;;;;;;0.10;0.10;;;;;;;;;;5013687;28;20072;-79
2023/12/13 06:23:34;;;;;;;0.10;0.10;;;;;;;;;;5019437;28;20109;-79
2023/12/13 06:26:01;;;;;;;0.10;0.10;;;;;;;;;;5015321;28;20065;-78
2023/12/13 06:28:27;;;;;;;0.10;0.10;;;;;;;;;;5017612;28;20093;-79
2023/12/13 06:30:54;;;;;;;0.10;0.10;;;;;;;;;;4999059;28;20081;-78
2023/12/13 06:33:20;;;;;;;0.10;0.10;;;;;;;;;;5015998;28;20448;-79
2023/12/13 06:35:48;;;;;;;0.10;0.10;;;;;;;;;;5004228;28;20042;-78
2023/12/13 06:38:14;;;;;;;0.10;0.10;;;;;;;;;;4995370;28;20076;-79
2023/12/13 06:40:42;;;;;;;0.10;0.10;;;;;;;;;;4997119;28;20059;-79
2023/12/13 06:43:09;;;;;;;0.10;0.10;;;;;;;;;;5009061;28;20054;-79
2023/12/13 06:45:35;;;;;;;0.10;0.10;;;;;;;;;;4994107;28;20922;-79
2023/12/13 06:48:02;;;;;;;0.10;0.10;;;;;;;;;;5010708;28;20058;-79
2023/12/13 06:50:28;;;;;;;0.43;0.43;;;;;;;;;;5017261;28;20054;-79
2023/12/13 06:52:55;;;;;;;0.10;0.10;;;;;;;;;;5011738;28;20053;-79
2023/12/13 06:55:21;;;;;;;0.10;0.10;;;;;;;;;;4996396;28;20868;-79
2023/12/13 06:57:48;;;;;;;0.10;0.10;;;;;;;;;;5010469;28;20054;-79
2023/12/13 07:00:16;;;;;;;0.10;0.10;;;;;;;;;;5007720;28;20520;-79
2023/12/13 07:02:42;;;;;;;0.10;0.10;;;;;;;;;;4981231;28;20106;-79
2023/12/13 07:05:10;;;;;;;0.10;0.10;;;;;;;;;;5009086;28;20058;-79
2023/12/13 07:07:36;;;;;;;0.10;0.10;;;;;;;;;;5011220;28;20802;-79
2023/12/13 07:10:03;;;;;;;0.10;0.10;;;;;;;;;;5012812;28;20105;-79
2023/12/13 07:12:30;;;;;;;0.10;0.10;;;;;;;;;;5008256;28;20058;-79
2023/12/13 07:14:56;;;;;;;0.10;0.10;;;;;;;;;;5006923;28;20039;-79
2023/12/13 07:17:23;;;;;;;0.15;0.15;;;;;;;;;;4991685;28;20049;-80
2023/12/13 07:19:50;;;;;;;0.25;0.25;;;;;;;;;;5009241;28;20054;-81
2023/12/13 07:22:18;;;;;;;0.10;0.10;;;;;;;;;;5016283;28;20061;-80
2023/12/13 07:24:47;;;;;;;0.35;0.35;;;;;;;;;;5009680;28;20062;-80
2023/12/13 07:27:13;;;;;;;0.10;0.10;;;;;;;;;;5013775;28;20038;-80
2023/12/13 07:29:41;;;;;;;0.10;0.10;;;;;;;;;;5011439;28;20057;-80
2023/12/13 07:32:08;;;;;;;0.10;0.10;;;;;;;;;;5010765;28;20110;-80
2023/12/13 07:34:36;;;;;;;0.10;0.10;;;;;;;;;;4993545;28;20560;-80
2023/12/13 07:37:03;;;;;;;0.10;0.10;;;;;;;;;;4992150;28;20060;-80
2023/12/13 07:39:31;;;;;;;0.10;0.10;;;;;;;;;;4996072;28;20145;-81
2023/12/13 07:41:57;;;;;;;0.10;0.10;;;;;;;;;;5011187;28;20050;-80
2023/12/13 07:44:24;;;;;;;0.10;0.10;;;;;;;;;;4994947;28;20086;-81
2023/12/13 07:46:51;;;;;;;0.20;0.20;;;;;;;;;;4994280;28;20530;-81
2023/12/13 07:49:17;;;;;;;0.10;0.10;;;;;;;;;;5011042;28;20057;-80
2023/12/13 07:51:44;;;;;;;0.10;0.10;;;;;;;;;;5017737;28;20062;-80
2023/12/13 07:54:13;;;;;;;0.10;0.10;;;;;;;;;;5018472;28;20050;-80
2023/12/13 07:56:41;;;;;;;0.10;0.10;;;;;;;;;;5012433;28;20055;-80
2023/12/13 07:59:07;;;;;;;0.10;0.10;;;;;;;;;;5005726;28;20060;-80
2023/12/13 08:01:42;;;;;;;0.10;0.10;;;;;;;;;;5003653;28;20046;-80
2023/12/13 08:04:09;;;;;;;0.10;0.10;;;;;;;;;;5012741;28;20054;-80
2023/12/13 08:06:35;;;;;;;0.10;0.10;;;;;;;;;;4998703;28;20082;-81
2023/12/13 08:09:02;;;;;;;0.10;0.10;;;;;;;;;;5010446;28;20150;-81
2023/12/13 08:11:29;;;;;;;0.10;0.10;;;;;;;;;;4996326;28;20063;-80
2023/12/13 08:13:56;;;;;;;0.10;0.10;;;;;;;;;;5009566;28;20070;-80
2023/12/13 08:16:22;;;;;;;0.10;0.10;;;;;;;;;;5017864;28;20994;-80
2023/12/13 08:18:49;;;;;;;0.10;0.10;;;;;;;;;;5024821;28;20060;-79
2023/12/13 08:21:16;;;;;;;0.20;0.20;;;;;;;;;;5005331;28;20054;-80
2023/12/13 08:23:42;;;;;;;0.10;0.10;;;;;;;;;;5022857;28;20077;-81
2023/12/13 08:26:12;;;;;;;0.10;0.10;;;;;;;;;;5016618;28;20085;-80
2023/12/13 08:28:38;;;;;;;0.10;0.10;;;;;;;;;;5017814;28;20057;-80
2023/12/13 08:31:07;;;;;;;0.20;0.20;;;;;;;;;;5011336;28;20531;-80
2023/12/13 08:33:46;;;;;;;0.10;0.10;;;;;;;;;;5024264;28;20052;-80
2023/12/13 08:36:13;;;;;;;0.10;0.10;;;;;;;;;;5018470;28;20070;-80
2023/12/13 08:38:39;;;;;;;0.10;0.10;;;;;;;;;;5001264;28;20058;-82
2023/12/13 08:41:07;;;;;;;0.10;0.10;;;;;;;;;;5024293;28;20042;-80
2023/12/13 08:43:33;;;;;;;0.10;0.10;;;;;;;;;;5026124;28;20610;-81
2023/12/13 08:46:00;;;;;;;0.10;0.10;;;;;;;;;;5021384;28;20555;-80
2023/12/13 08:48:26;;;;;;;0.10;0.10;;;;;;;;;;5023885;28;20113;-81
2023/12/13 08:50:53;;;;;;;0.10;0.10;;;;;;;;;;5005742;28;20147;-81
2023/12/13 08:53:19;;;;;;;1.17;0.73;;;;;;;;;;4999670;28;20050;-81
2023/12/13 08:55:46;;;;;;;0.10;0.10;;;;;;;;;;5018207;28;20046;-81
2023/12/13 08:58:13;;;;;;;0.10;0.10;;;;;;;;;;5020454;28;20066;-81
2023/12/13 09:00:39;;;;;;;0.10;0.10;;;;;;;;;;5010128;28;20092;-79
2023/12/13 09:03:06;;;;;;;0.43;0.32;;;;;;;;;;4999379;28;20058;-80
2023/12/13 09:05:32;;;;;;;0.10;0.10;;;;;;;;;;5016772;28;20055;-80
2023/12/13 09:07:59;;;;;;;0.10;0.10;;;;;;;;;;4996091;28;20106;-80
2023/12/13 09:10:25;;;;;;;0.10;0.10;;;;;;;;;;5019038;28;20145;-80
2023/12/13 09:12:53;;;;;;;0.20;0.20;;;;;;;;;;5000615;28;20515;-80
2023/12/13 09:15:20;;;;;;;0.10;0.10;;;;;;;;;;4998678;28;20874;-80
2023/12/13 09:17:47;;;;;;;0.10;0.10;;;;;;;;;;5009385;28;20082;-80
2023/12/13 09:20:16;;;;;;;0.10;0.10;;;;;;;;;;5011625;28;20082;-80
2023/12/13 09:22:43;;;;;;;0.10;0.10;;;;;;;;;;5012531;28;20090;-80
2023/12/13 09:25:14;;;;;;;0.20;0.20;;;;;;;;;;5011038;28;20054;-80
2023/12/13 09:27:41;;;;;;;0.20;0.20;;;;;;;;;;4995199;28;20508;-80
2023/12/13 09:30:11;;;;;;;0.10;0.10;;;;;;;;;;4996204;28;20508;-81
2023/12/13 09:32:38;;;;;;;0.10;0.10;;;;;;;;;;4996390;28;20054;-80
2023/12/13 09:35:05;;;;;;;0.10;0.10;;;;;;;;;;5005034;28;20382;-80
2023/12/13 09:37:32;;;;;;;0.10;0.10;;;;;;;;;;5012669;28;20058;-80
2023/12/13 09:39:59;;;;;;;0.10;0.10;;;;;;;;;;4996801;28;20070;-80
2023/12/13 09:42:29;;;;;;;0.10;0.10;;;;;;;;;;4998142;28;20496;-81
2023/12/13 09:44:55;;;;;;;0.10;0.10;;;;;;;;;;4999006;28;20066;-80
2023/12/13 09:47:23;;;;;;;0.10;0.10;;;;;;;;;;5013162;28;20074;-80
2023/12/13 09:49:50;;;;;;;0.10;0.10;;;;;;;;;;5005717;23;20060;-75
2023/12/13 09:52:18;;;;;;;0.10;0.10;;;;;;;;;;5023584;28;20060;-75
2023/12/13 09:54:46;;;;;;;0.10;0.10;;;;;;;;;;5025907;28;20132;-73
2023/12/13 09:57:12;;;;;;;0.10;0.10;;;;;;;;;;5035660;28;20054;-73
2023/12/13 09:59:39;;;;;;;0.10;0.10;;;;;;;;;;5026930;28;20101;-74
2023/12/13 10:02:10;;;;;;;0.10;0.10;;;;;;;;;;5026029;28;20216;-75
2023/12/13 10:04:36;;;;;;;0.10;0.10;;;;;;;;;;5025877;28;20053;-76
2023/12/13 10:07:05;;;;;;;0.13;0.13;;;;;;;;;;5004007;28;20050;-76
2023/12/13 10:09:32;;;;;;;0.10;0.10;;;;;;;;;;5026038;28;20476;-76
2023/12/13 10:11:59;;;;;;;0.10;0.10;;;;;;;;;;5031495;28;20064;-76
2023/12/13 10:14:25;;;;;;;0.10;0.10;;;;;;;;;;5026528;28;20531;-76
2023/12/13 10:16:52;;;;;;;0.10;0.10;;;;;;;;;;5023342;28;20563;-75
2023/12/13 10:19:34;;;;;;;0.10;0.10;;;;;;;;;;5022339;28;20053;-75
2023/12/13 10:22:05;;;;;;;0.10;0.10;;;;;;;;;;5023329;28;20050;-75
2023/12/13 10:24:31;;;;;;;0.20;0.20;;;;;;;;;;5022496;28;20062;-76
2023/12/13 10:26:58;;;;;;;0.20;0.20;;;;;;;;;;5018967;28;20530;-76
2023/12/13 10:29:24;;;;;;;0.10;0.10;;;;;;;;;;5025634;28;20054;-75
2023/12/13 10:31:51;;;;;;;0.10;0.10;;;;;;;;;;5022700;28;20614;-73
2023/12/13 10:34:17;;;;;;;0.10;0.10;;;;;;;;;;5023168;28;20054;-73
2023/12/13 10:36:46;;;;;;;0.10;0.10;;;;;;;;;;5008368;28;20528;-75
2023/12/13 10:39:13;;;;;;;0.10;0.10;;;;;;;;;;5023900;28;20077;-73
2023/12/13 10:41:44;;;;;;;0.10;0.10;;;;;;;;;;5023866;28;20133;-72
2023/12/13 10:44:15;;;;;;;1.55;0.90;;;;;;;;;;5024282;28;20128;-75
2023/12/13 10:46:46;;;;;;;0.10;0.10;;;;;;;;;;5018112;28;20598;-74
2023/12/13 10:49:16;;;;;;;0.10;0.10;;;;;;;;;;5022852;28;20053;-74
2023/12/13 10:51:46;;;;;;;0.10;0.10;;;;;;;;;;5023511;28;20061;-74
2023/12/13 10:54:13;;;;;;;0.10;0.10;;;;;;;;;;5024289;28;20768;-74
2023/12/13 10:56:40;;;;;;;0.10;0.10;;;;;;;;;;5025841;28;20062;-74
2023/12/13 10:59:09;;;;;;;0.15;0.15;;;;;;;;;;5023813;28;20594;-74
2023/12/13 11:01:36;;;;;;;0.10;0.10;;;;;;;;;;5023268;28;20061;-74
2023/12/13 11:04:08;;;;;;;0.17;0.17;;;;;;;;;;5022126;28;20085;-75
2023/12/13 11:06:38;;;;;;;0.10;0.10;;;;;;;;;;5025229;28;20057;-76
2023/12/13 11:09:10;;;;;;;0.10;0.10;;;;;;;;;;5023874;28;20054;-75
2023/12/13 11:11:36;;;;;;;0.10;0.10;;;;;;;;;;5025030;28;20084;-73
2023/12/13 11:14:03;;;;;;;0.10;0.10;;;;;;;;;;5023739;28;20142;-74
2023/12/13 11:16:37;;;;;;;0.10;0.10;;;;;;;;;;5024832;28;20100;-73
2023/12/13 11:19:04;;;;;;;0.20;0.20;;;;;;;;;;5022490;28;20474;-72
2023/12/13 11:21:32;;;;;;;0.10;0.10;;;;;;;;;;5024286;28;20058;-73
2023/12/13 11:24:15;;;;;;;0.10;0.10;;;;;;;;;;5025845;28;20500;-73
2023/12/13 11:26:52;;;;;;;0.73;0.45;;;;;;;;;;5019633;28;20058;-72
2023/12/13 11:29:32;;;;;;;0.22;0.22;;;;;;;;;;5019269;28;20973;-73
2023/12/13 11:32:02;;;;;;;0.17;0.17;;;;;;;;;;5024585;28;20050;-74
2023/12/13 11:34:32;;;;;;;0.17;0.17;;;;;;;;;;5024203;28;20053;-73
2023/12/13 11:37:03;;;;;;;0.13;0.13;;;;;;;;;;5021647;28;20732;-73
2023/12/13 11:39:29;;;;;;;0.20;0.20;;;;;;;;;;5021272;28;20512;-72
2023/12/13 11:41:57;;;;;;;0.10;0.10;;;;;;;;;;5009375;28;20181;-74
2023/12/13 11:44:30;;;;;;;0.10;0.10;;;;;;;;;;5021249;28;20085;-74
2023/12/13 11:46:58;;;;;;;0.20;0.20;;;;;;;;;;5022811;28;20112;-74
2023/12/13 11:49:26;;;;;;;0.05;0.05;;;;;;;;;;5022643;28;20137;-74
2023/12/13 11:51:53;;;;;;;0.10;0.10;;;;;;;;;;5023832;28;20132;-75
2023/12/13 11:54:19;;;;;;;0.10;0.10;;;;;;;;;;5023517;28;20524;-75
2023/12/13 11:56:46;;;;;;;0.10;0.10;;;;;;;;;;5027642;28;20522;-74
2023/12/13 11:59:13;;;;;;;0.10;0.10;;;;;;;;;;5007460;28;20053;-73
2023/12/13 12:01:40;;;;;;;0.10;0.10;;;;;;;;;;5020781;28;20870;-73
2023/12/13 12:04:07;;;;;;;0.10;0.10;;;;;;;;;;5022262;28;20141;-73
2023/12/13 12:06:33;;;;;;;0.35;0.35;;;;;;;;;;5023666;28;20061;-74
2023/12/13 12:09:01;;;;;;;0.10;0.10;;;;;;;;;;5006458;28;20141;-74
2023/12/13 12:11:27;;;;;;;0.13;0.13;;;;;;;;;;5024712;28;20054;-74
2023/12/13 12:13:56;;;;;;;0.10;0.10;;;;;;;;;;5028336;28;20140;-74
2023/12/13 12:16:23;;;;;;;0.10;0.10;;;;;;;;;;5019253;28;20135;-73
2023/12/13 12:18:50;;;;;;;0.10;0.10;;;;;;;;;;5020726;28;20058;-74
2023/12/13 12:21:18;;;;;;;0.10;0.10;;;;;;;;;;5024439;28;20046;-73
2023/12/13 12:23:45;;;;;;;0.10;0.10;;;;;;;;;;5023964;28;20053;-74
2023/12/13 12:26:12;;;;;;;0.10;0.10;;;;;;;;;;5024832;28;20552;-72
2023/12/13 12:28:40;;;;;;;0.10;0.10;;;;;;;;;;5021906;28;20085;-72
2023/12/13 12:31:09;;;;;;;0.68;0.68;;;;;;;;;;5015967;28;20163;-73
2023/12/13 12:33:42;;;;;;;0.10;0.10;;;;;;;;;;5022183;28;20633;-74
2023/12/13 12:36:09;;;;;;;0.10;0.10;;;;;;;;;;5025155;28;20057;-74
2023/12/13 12:38:37;;;;;;;2.53;0.35;;;;;;;;;;5027259;28;20791;-74
2023/12/13 12:41:04;;;;;;;0.10;0.10;;;;;;;;;;5026907;28;20185;-74
2023/12/13 12:43:30;;;;;;;0.80;0.28;;;;;;;;;;5009758;28;20065;-73
2023/12/13 12:45:56;;;;;;;0.15;0.15;;;;;;;;;;5019266;28;20054;-73
2023/12/13 12:48:23;;;;;;;0.15;0.15;;;;;;;;;;5029201;28;20401;-74
2023/12/13 12:50:49;;;;;;;0.10;0.10;;;;;;;;;;5026764;28;20060;-74
2023/12/13 12:53:16;;;;;;;0.10;0.10;;;;;;;;;;5009211;28;20060;-74
2023/12/13 12:55:42;;;;;;;0.45;0.45;;;;;;;;;;5026595;28;20129;-73
2023/12/13 12:58:09;;;;;;;0.10;0.10;;;;;;;;;;5026977;28;20056;-73
2023/12/13 13:00:35;;;;;;;0.10;0.10;;;;;;;;;;5027226;28;20054;-74
2023/12/13 13:03:04;;;;;;;0.10;0.10;;;;;;;;;;5026552;28;20094;-72
2023/12/13 13:05:31;;;;;;;0.10;0.10;;;;;;;;;;5029213;28;20830;-73
2023/12/13 13:07:58;;;;;;;0.10;0.10;;;;;;;;;;5027176;28;20135;-74
2023/12/13 13:10:25;;;;;;;0.10;0.10;;;;;;;;;;5026738;28;20054;-74
2023/12/13 13:12:51;;;;;;;0.10;0.10;;;;;;;;;;5025606;28;20056;-74
2023/12/13 13:15:17;;;;;;;0.10;0.10;;;;;;;;;;5025417;28;20058;-74
2023/12/13 13:17:44;;;;;;;0.28;0.28;;;;;;;;;;5026154;28;20130;-72
2023/12/13 13:20:15;;;;;;;0.95;0.50;;;;;;;;;;5026222;28;20081;-74
2023/12/13 13:22:42;;;;;;;0.20;0.20;;;;;;;;;;5029466;28;20084;-74
2023/12/13 13:25:10;;;;;;;0.10;0.10;;;;;;;;;;5026429;28;20085;-73
2023/12/13 13:27:36;;;;;;;0.10;0.10;;;;;;;;;;5026802;28;20050;-72
2023/12/13 13:30:04;;;;;;;0.10;0.10;;;;;;;;;;5025469;28;20112;-74
2023/12/13 13:32:30;;;;;;;0.15;0.15;;;;;;;;;;5025880;28;20058;-73
2023/12/13 13:34:57;;;;;;;0.10;0.10;;;;;;;;;;5024518;28;20081;-72
2023/12/13 13:37:23;;;;;;;0.80;0.68;;;;;;;;;;5026844;28;20061;-74
2023/12/13 13:39:50;;;;;;;0.20;0.20;;;;;;;;;;5028527;28;20061;-74
2023/12/13 13:42:16;;;;;;;0.10;0.10;;;;;;;;;;5025931;28;20504;-73
2023/12/13 13:44:43;;;;;;;0.63;0.63;;;;;;;;;;5023831;28;20106;-74
2023/12/13 13:47:09;;;;;;;0.10;0.10;;;;;;;;;;5025787;28;20055;-71
2023/12/13 13:49:36;;;;;;;0.30;0.30;;;;;;;;;;5025135;28;20188;-72
2023/12/13 13:52:02;;;;;;;0.10;0.10;;;;;;;;;;5022360;28;20058;-74
2023/12/13 13:54:29;;;;;;;0.10;0.10;;;;;;;;;;5007474;28;20109;-74
2023/12/13 13:56:55;;;;;;;0.10;0.10;;;;;;;;;;5032277;28;20049;-74
2023/12/13 13:59:21;;;;;;;0.10;0.10;;;;;;;;;;5026335;28;20057;-74
2023/12/13 14:01:49;;;;;;;0.47;0.47;;;;;;;;;;5026084;28;20054;-74
2023/12/13 14:04:16;;;;;;;0.10;0.10;;;;;;;;;;5024804;28;20049;-73
2023/12/13 14:06:43;;;;;;;0.10;0.10;;;;;;;;;;5025090;28;20054;-73
2023/12/13 14:09:10;;;;;;;0.10;0.10;;;;;;;;;;5026046;28;20530;-73
2023/12/13 14:11:37;;;;;;;0.10;0.10;;;;;;;;;;5025266;28;20136;-73
2023/12/13 14:14:03;;;;;;;0.10;0.10;;;;;;;;;;5028260;28;20832;-73
2023/12/13 14:16:30;;;;;;;0.10;0.10;;;;;;;;;;5022957;28;20659;-73
2023/12/13 14:18:56;;;;;;;0.20;0.20;;;;;;;;;;5024860;28;20140;-74
2023/12/13 14:21:23;;;;;;;0.30;0.30;;;;;;;;;;5026404;28;20089;-73
2023/12/13 14:23:49;;;;;;;0.10;0.10;;;;;;;;;;5025283;28;20987;-73
2023/12/13 14:26:15;;;;;;;0.10;0.10;;;;;;;;;;5010618;28;20058;-72
2023/12/13 14:28:42;;;;;;;0.10;0.10;;;;;;;;;;5025016;28;20057;-71
2023/12/13 14:31:08;;;;;;;0.10;0.10;;;;;;;;;;5033714;28;20196;-74
2023/12/13 14:33:35;;;;;;;0.10;0.10;;;;;;;;;;5025622;28;20065;-73
2023/12/13 14:36:01;;;;;;;0.25;0.25;;;;;;;;;;5025006;28;20508;-73
2023/12/13 14:38:28;;;;;;;0.10;0.10;;;;;;;;;;5024575;28;20519;-71
2023/12/13 14:40:55;;;;;;;0.15;0.15;;;;;;;;;;5026019;28;20057;-73
2023/12/13 14:43:21;;;;;;;0.10;0.10;;;;;;;;;;5025042;28;20054;-73